Time,TemperatureF,DewpointF,PressureIn,WindDirection,WindDirectionDegrees,WindSpeedMPH,WindSpeedGustMPH,Humidity,HourlyPrecipIn,Conditions,Clouds,dailyrainin,SolarRadiationWatts/m^2,SoftwareType,DateUTC
2013-03-25 00:03:00,20.0,11.0,-100.00,NNW,339,3.0,6.0,66,0.00,,,0.00,0.000000,,2013-03-25 05:03:00,
2013-03-25 00:33:00,19.0,10.0,-100.00,North,355,3.0,4.0,68,0.00,,,0.00,0.000000,,2013-03-25 05:33:00,
2013-03-25 00:42:00,19.0,10.0,-100.00,North,355,3.0,4.0,68,0.00,,,0.00,0.000000,,2013-03-25 05:42:00,
2013-03-25 00:52:00,19.0,10.0,-100.00,North,355,3.0,4.0,68,0.00,,,0.00,0.000000,,2013-03-25 05:52:00,
2013-03-25 01:02:00,19.0,10.0,-100.00,North,355,3.0,4.0,68,0.00,,,0.00,0.000000,,2013-03-25 06:02:00,
2013-03-25 01:33:00,15.0,9.0,-100.00,North,352,3.0,4.0,75,0.00,,,0.00,0.000000,,2013-03-25 06:33:00,
2013-03-25 01:42:00,15.0,9.0,-100.00,North,352,3.0,4.0,75,0.00,,,0.00,0.000000,,2013-03-25 06:42:00,
2013-03-25 01:52:00,15.0,9.0,-100.00,North,352,3.0,4.0,75,0.00,,,0.00,0.000000,,2013-03-25 06:52:00,
2013-03-25 02:02:00,15.0,9.0,-100.00,North,352,3.0,4.0,75,0.00,,,0.00,0.000000,,2013-03-25 07:02:00,
2013-03-25 02:22:00,10.0,5.0,-100.00,North,356,1.0,4.0,81,0.00,,,0.00,0.000000,,2013-03-25 07:22:00,
2013-03-25 02:32:00,10.0,5.0,-100.00,North,356,1.0,4.0,81,0.00,,,0.00,0.000000,,2013-03-25 07:32:00,
2013-03-25 02:42:00,10.0,5.0,-100.00,North,356,1.0,4.0,81,0.00,,,0.00,0.000000,,2013-03-25 07:42:00,
2013-03-25 02:53:00,10.0,5.0,-100.00,North,356,1.0,4.0,81,0.00,,,0.00,0.000000,,2013-03-25 07:53:00,
2013-03-25 03:02:00,10.0,5.0,-100.00,North,356,1.0,4.0,81,0.00,,,0.00,0.000000,,2013-03-25 08:02:00,
2013-03-25 03:23:00,9.0,5.0,-100.00,North,8,2.0,3.0,83,0.00,,,0.00,0.000000,,2013-03-25 08:23:00,
2013-03-25 03:32:00,9.0,5.0,-100.00,North,8,2.0,3.0,83,0.00,,,0.00,0.000000,,2013-03-25 08:32:00,
2013-03-25 03:43:00,9.0,5.0,-100.00,North,8,2.0,3.0,83,0.00,,,0.00,0.000000,,2013-03-25 08:43:00,
2013-03-25 03:52:00,9.0,5.0,-100.00,North,8,2.0,3.0,83,0.00,,,0.00,0.000000,,2013-03-25 08:52:00,
2013-03-25 04:02:00,9.0,5.0,-100.00,North,8,2.0,3.0,83,0.00,,,0.00,0.000000,,2013-03-25 09:02:00,
2013-03-25 04:33:00,8.0,3.0,-100.00,North,3,4.0,5.0,78,0.00,,,0.00,0.000000,,2013-03-25 09:33:00,
2013-03-25 04:43:00,8.0,3.0,-100.00,North,3,4.0,5.0,78,0.00,,,0.00,0.000000,,2013-03-25 09:43:00,
2013-03-25 04:52:00,8.0,3.0,-100.00,North,3,4.0,5.0,78,0.00,,,0.00,0.000000,,2013-03-25 09:52:00,
2013-03-25 05:03:00,8.0,3.0,-100.00,North,3,4.0,5.0,78,0.00,,,0.00,0.000000,,2013-03-25 10:03:00,
2013-03-25 05:33:00,12.0,8.0,-100.00,NNE,15,3.0,5.0,82,0.00,,,0.00,0.000000,,2013-03-25 10:33:00,
2013-03-25 05:43:00,12.0,8.0,-100.00,NNE,15,3.0,5.0,82,0.00,,,0.00,0.000000,,2013-03-25 10:43:00,
2013-03-25 05:54:00,12.0,8.0,-100.00,NNE,15,3.0,5.0,82,0.00,,,0.00,0.000000,,2013-03-25 10:54:00,
2013-03-25 06:03:00,12.0,8.0,-100.00,NNE,15,3.0,5.0,82,0.00,,,0.00,0.000000,,2013-03-25 11:03:00,
2013-03-25 06:33:00,12.0,8.0,-100.00,NNE,27,4.0,5.0,82,0.00,,,0.00,0.000000,,2013-03-25 11:33:00,
2013-03-25 06:42:00,12.0,8.0,-100.00,NNE,27,4.0,5.0,82,0.00,,,0.00,0.000000,,2013-03-25 11:42:00,
2013-03-25 06:53:00,12.0,8.0,-100.00,NNE,27,4.0,5.0,82,0.00,,,0.00,0.000000,,2013-03-25 11:53:00,
2013-03-25 07:02:00,12.0,8.0,-100.00,NNE,27,4.0,5.0,82,0.00,,,0.00,0.000000,,2013-03-25 12:02:00,
2013-03-25 07:33:00,8.0,4.0,-100.00,NNE,26,1.0,5.0,82,0.00,,,0.00,1.000000,,2013-03-25 12:33:00,
2013-03-25 07:43:00,8.0,4.0,-100.00,NNE,26,1.0,5.0,82,0.00,,,0.00,1.000000,,2013-03-25 12:43:00,
2013-03-25 07:53:00,8.0,4.0,-100.00,NNE,26,1.0,5.0,82,0.00,,,0.00,1.000000,,2013-03-25 12:53:00,
2013-03-25 08:02:00,8.0,4.0,-100.00,NNE,26,1.0,5.0,82,0.00,,,0.00,1.000000,,2013-03-25 13:02:00,
2013-03-25 08:32:00,10.0,6.0,-100.00,North,3,1.0,4.0,83,0.00,,,0.00,33.000000,,2013-03-25 13:32:00,
2013-03-25 08:43:00,10.0,6.0,-100.00,North,3,1.0,4.0,83,0.00,,,0.00,33.000000,,2013-03-25 13:43:00,
2013-03-25 08:52:00,10.0,6.0,-100.00,North,3,1.0,4.0,83,0.00,,,0.00,33.000000,,2013-03-25 13:52:00,
2013-03-25 09:03:00,10.0,6.0,-100.00,North,3,1.0,4.0,83,0.00,,,0.00,33.000000,,2013-03-25 14:03:00,
2013-03-25 09:23:00,19.0,14.0,-100.00,NNE,18,4.0,8.0,80,0.00,,,0.00,120.000000,,2013-03-25 14:23:00,
2013-03-25 09:32:00,19.0,14.0,-100.00,NNE,18,4.0,8.0,80,0.00,,,0.00,120.000000,,2013-03-25 14:32:00,
2013-03-25 09:43:00,19.0,14.0,-100.00,NNE,18,4.0,8.0,80,0.00,,,0.00,120.000000,,2013-03-25 14:43:00,
2013-03-25 09:53:00,19.0,14.0,-100.00,NNE,18,4.0,8.0,80,0.00,,,0.00,120.000000,,2013-03-25 14:53:00,
2013-03-25 10:02:00,19.0,14.0,-100.00,NNE,18,4.0,8.0,80,0.00,,,0.00,120.000000,,2013-03-25 15:02:00,
2013-03-25 10:23:00,27.0,17.0,-100.00,NNE,32,9.0,13.0,66,0.00,,,0.00,275.000000,,2013-03-25 15:23:00,
2013-03-25 10:33:00,27.0,17.0,-100.00,NNE,32,9.0,13.0,66,0.00,,,0.00,275.000000,,2013-03-25 15:33:00,
2013-03-25 10:43:00,27.0,17.0,-100.00,NNE,32,9.0,13.0,66,0.00,,,0.00,275.000000,,2013-03-25 15:43:00,
2013-03-25 10:53:00,27.0,17.0,-100.00,NNE,32,9.0,13.0,66,0.00,,,0.00,275.000000,,2013-03-25 15:53:00,
2013-03-25 11:03:00,27.0,17.0,-100.00,NNE,32,9.0,13.0,66,0.00,,,0.00,275.000000,,2013-03-25 16:03:00,
2013-03-25 11:33:00,31.0,17.0,-100.00,North,6,10.0,16.0,55,0.00,,,0.00,546.000000,,2013-03-25 16:33:00,
2013-03-25 11:43:00,31.0,17.0,-100.00,North,6,10.0,16.0,55,0.00,,,0.00,546.000000,,2013-03-25 16:43:00,
2013-03-25 11:53:00,31.0,17.0,-100.00,North,6,10.0,16.0,55,0.00,,,0.00,546.000000,,2013-03-25 16:53:00,
2013-03-25 12:02:00,31.0,17.0,-100.00,North,6,10.0,16.0,55,0.00,,,0.00,546.000000,,2013-03-25 17:02:00,
2013-03-25 12:24:00,34.0,17.0,-100.00,North,353,7.0,15.0,50,0.00,,,0.00,654.000000,,2013-03-25 17:24:00,
2013-03-25 12:33:00,34.0,17.0,-100.00,North,353,7.0,15.0,50,0.00,,,0.00,654.000000,,2013-03-25 17:33:00,
2013-03-25 12:43:00,34.0,17.0,-100.00,North,353,7.0,15.0,50,0.00,,,0.00,654.000000,,2013-03-25 17:43:00,
2013-03-25 12:53:00,34.0,17.0,-100.00,North,353,7.0,15.0,50,0.00,,,0.00,654.000000,,2013-03-25 17:53:00,
2013-03-25 13:03:00,34.0,17.0,-100.00,North,353,7.0,15.0,50,0.00,,,0.00,654.000000,,2013-03-25 18:03:00,
2013-03-25 13:33:00,36.0,17.0,-100.00,NNW,344,10.0,19.0,45,0.00,,,0.00,783.000000,,2013-03-25 18:33:00,
2013-03-25 13:43:00,36.0,17.0,-100.00,NNW,344,10.0,19.0,45,0.00,,,0.00,783.000000,,2013-03-25 18:43:00,
2013-03-25 13:53:00,36.0,17.0,-100.00,NNW,344,10.0,19.0,45,0.00,,,0.00,783.000000,,2013-03-25 18:53:00,
2013-03-25 14:03:00,36.0,17.0,-100.00,NNW,344,10.0,19.0,45,0.00,,,0.00,783.000000,,2013-03-25 19:03:00,
2013-03-25 14:33:00,40.0,18.0,-100.00,North,1,8.0,18.0,41,0.00,,,0.00,795.000000,,2013-03-25 19:33:00,
2013-03-25 14:43:00,40.0,18.0,-100.00,North,1,8.0,18.0,41,0.00,,,0.00,795.000000,,2013-03-25 19:43:00,
2013-03-25 14:53:00,40.0,18.0,-100.00,North,1,8.0,18.0,41,0.00,,,0.00,795.000000,,2013-03-25 19:53:00,
2013-03-25 15:02:00,40.0,18.0,-100.00,North,1,8.0,18.0,41,0.00,,,0.00,795.000000,,2013-03-25 20:02:00,
2013-03-25 15:32:00,40.0,16.0,-100.00,NNE,29,10.0,18.0,37,0.00,,,0.00,695.000000,,2013-03-25 20:32:00,
2013-03-25 15:42:00,40.0,16.0,-100.00,NNE,29,10.0,18.0,37,0.00,,,0.00,695.000000,,2013-03-25 20:42:00,
2013-03-25 15:52:00,40.0,16.0,-100.00,NNE,29,10.0,18.0,37,0.00,,,0.00,695.000000,,2013-03-25 20:52:00,
2013-03-25 16:02:00,40.0,16.0,-100.00,NNE,29,10.0,18.0,37,0.00,,,0.00,695.000000,,2013-03-25 21:02:00,
2013-03-25 16:22:00,38.0,15.0,-100.00,NNE,17,9.0,19.0,39,0.00,,,0.00,487.000000,,2013-03-25 21:22:00,
2013-03-25 16:33:00,38.0,15.0,-100.00,NNE,17,9.0,19.0,39,0.00,,,0.00,487.000000,,2013-03-25 21:33:00,
2013-03-25 16:43:00,38.0,15.0,-100.00,NNE,17,9.0,19.0,39,0.00,,,0.00,487.000000,,2013-03-25 21:43:00,
2013-03-25 16:52:00,38.0,15.0,-100.00,NNE,17,9.0,19.0,39,0.00,,,0.00,487.000000,,2013-03-25 21:52:00,
2013-03-25 17:03:00,38.0,15.0,-100.00,NNE,17,9.0,19.0,39,0.00,,,0.00,487.000000,,2013-03-25 22:03:00,
2013-03-25 17:33:00,36.0,14.0,-100.00,NNE,26,10.0,16.0,40,0.00,,,0.00,254.000000,,2013-03-25 22:33:00,
2013-03-25 17:42:00,36.0,14.0,-100.00,NNE,26,10.0,16.0,40,0.00,,,0.00,254.000000,,2013-03-25 22:42:00,
2013-03-25 17:52:00,36.0,14.0,-100.00,NNE,26,10.0,16.0,40,0.00,,,0.00,254.000000,,2013-03-25 22:52:00,
2013-03-25 18:03:00,36.0,14.0,-100.00,NNE,26,10.0,16.0,40,0.00,,,0.00,254.000000,,2013-03-25 23:03:00,
2013-03-25 18:33:00,36.0,13.0,-100.00,NNE,27,9.0,17.0,39,0.00,,,0.00,171.000000,,2013-03-25 23:33:00,
2013-03-25 18:43:00,36.0,13.0,-100.00,NNE,27,9.0,17.0,39,0.00,,,0.00,171.000000,,2013-03-25 23:43:00,
2013-03-25 18:53:00,36.0,13.0,-100.00,NNE,27,9.0,17.0,39,0.00,,,0.00,171.000000,,2013-03-25 23:53:00,
2013-03-25 19:02:00,36.0,13.0,-100.00,NNE,27,9.0,17.0,39,0.00,,,0.00,171.000000,,2013-03-26 00:02:00,
2013-03-25 19:33:00,34.0,14.0,-100.00,NNE,20,8.0,16.0,43,0.00,,,0.00,73.000000,,2013-03-26 00:33:00,
2013-03-25 19:43:00,34.0,14.0,-100.00,NNE,20,8.0,16.0,43,0.00,,,0.00,73.000000,,2013-03-26 00:43:00,
2013-03-25 19:52:00,34.0,14.0,-100.00,NNE,20,8.0,16.0,43,0.00,,,0.00,73.000000,,2013-03-26 00:52:00,
2013-03-25 20:02:00,34.0,14.0,-100.00,NNE,20,8.0,16.0,43,0.00,,,0.00,73.000000,,2013-03-26 01:02:00,
2013-03-25 20:23:00,33.0,17.0,-100.00,NNE,26,4.0,11.0,52,0.00,,,0.00,4.000000,,2013-03-26 01:23:00,
2013-03-25 20:33:00,33.0,17.0,-100.00,NNE,26,4.0,11.0,52,0.00,,,0.00,4.000000,,2013-03-26 01:33:00,
2013-03-25 20:42:00,33.0,17.0,-100.00,NNE,26,4.0,11.0,52,0.00,,,0.00,4.000000,,2013-03-26 01:42:00,
2013-03-25 20:52:00,33.0,17.0,-100.00,NNE,26,4.0,11.0,52,0.00,,,0.00,4.000000,,2013-03-26 01:52:00,
2013-03-25 21:02:00,33.0,17.0,-100.00,NNE,26,4.0,11.0,52,0.00,,,0.00,4.000000,,2013-03-26 02:02:00,
2013-03-25 21:32:00,31.0,18.0,-100.00,NE,46,3.0,7.0,57,0.00,,,0.00,0.000000,,2013-03-26 02:32:00,
2013-03-25 21:43:00,31.0,18.0,-100.00,NE,46,3.0,7.0,57,0.00,,,0.00,0.000000,,2013-03-26 02:43:00,
2013-03-25 21:52:00,31.0,18.0,-100.00,NE,46,3.0,7.0,57,0.00,,,0.00,0.000000,,2013-03-26 02:52:00,
2013-03-25 22:02:00,31.0,18.0,-100.00,NE,46,3.0,7.0,57,0.00,,,0.00,0.000000,,2013-03-26 03:02:00,
2013-03-25 22:34:00,30.0,19.0,-100.00,NE,36,6.0,11.0,63,0.00,,,0.00,0.000000,,2013-03-26 03:34:00,
2013-03-25 22:43:00,30.0,19.0,-100.00,NE,36,6.0,11.0,63,0.00,,,0.00,0.000000,,2013-03-26 03:43:00,
2013-03-25 22:53:00,30.0,19.0,-100.00,NE,36,6.0,11.0,63,0.00,,,0.00,0.000000,,2013-03-26 03:53:00,
2013-03-25 23:03:00,30.0,19.0,-100.00,NE,36,6.0,11.0,63,0.00,,,0.00,0.000000,,2013-03-26 04:03:00,
2013-03-25 23:33:00,30.0,21.0,-100.00,NNW,335,2.0,6.0,70,0.00,,,0.00,0.000000,,2013-03-26 04:33:00,
2013-03-25 23:43:00,30.0,21.0,-100.00,NNW,335,2.0,6.0,70,0.00,,,0.00,0.000000,,2013-03-26 04:43:00,
2013-03-25 23:53:00,30.0,21.0,-100.00,NNW,335,2.0,6.0,70,0.00,,,0.00,0.000000,,2013-03-26 04:53:00,